Impacts TAF Board INFO
FOR SITUATIONAL AWARENESS. NOT TO BE USED FOR FLIGHT PLANNING PURPOSES.
IDs:

KMSP - Minneapolis-St Paul, MN, US

Issued at 1910 UTC 16 Aug 2018
Updated at 2019 UTC 16 Aug 2018
Potential Impact None Slight Moderate High
Time2013Z 16/21Z 16/22Z 16/23Z 17/00Z 17/01Z 17/02Z 17/03Z 17/04Z 17/05Z 17/06Z 17/07Z 17/08Z 17/09Z>>
Type OBS PRVL PRVL PRVL PRVL PRVL PRVL PRVL PRVL PRVL PRVL PRVL PRVL PRVL
VIS 10 >6 >6 >6 >6 >6 >6 >6 >6 >6 >6 >6 >6 >6
CIG 60 150 150 150 150 -- -- -- -- -- -- -- -- --
Cover BKN BKN BKN BKN BKN SCT SCT SCT SCT SCT SCT SCT SCT SCT
FltCat VFR VFR VFR VFR VFR VFR VFR VFR VFR VFR VFR VFR VFR VFR
WX -- -- -- -- -- -- -- -- -- -- -- -- -- --
WDir 190 10 10 10 10 360 360 360 360 360 360 360 360 360
WSpd 12 7 7 7 7 4 4 4 4 4 4 4 4 4
WGst 20 -- -- -- -- -- -- -- -- -- -- -- -- --

Raw TAF
KMSP 161910Z 1619/1724 VRB05KT P6SM FEW050 BKN150
  TEMPO 1619/1621 23012G23KT 3SM TSRA SCT020 BKN035CB OVC050
  FM162100 01007KT P6SM SCT050 BKN150
  FM170100 36004KT P6SM SCT150
  FM171500 35006KT P6SM SKC


Raw METAR
KMSP 162013Z 19012G20KT 10SM SCT049 BKN060 BKN075 BKN150 26/18 A2999 RMK AO2 LTG DSNT E-S CB DSNT E-SE T02560183
KMSP 161957Z 21012G21KT 10SM VCTS BKN049CB BKN080 BKN150 26/18 A2998 RMK AO2 LTG DSNT E-S VCTS SE MOV N T02560183
KMSP 161953Z 21012G23KT 10SM BKN049 BKN080 BKN150 26/18 A2997 RMK AO2 LTG DSNT E-S SLP146 CB DSNT E-S T02560178
KMSP 161937Z 21013G24KT 10SM BKN047 BKN080 BKN150 BKN250 27/18 A2997 RMK AO2 LTG DSNT E-S CB DSNT E-S T02670178
KMSP 161853Z 10SM SCT047 SCT150 BKN250 29/18 A2996 RMK AO2 LTG DSNT SE-SW SLP141 CB DSNT SE-S T02940183
KMSP 161753Z 34010KT 10SM FEW043 FEW150 SCT250 31/19 A2996 RMK AO2 SLP139 TCU DSNT SE-S T03110189 10311 20211 58004

METAR Board
Radar Display
Forecast Discussion

FOR SITUATIONAL AWARENESS. NOT TO BE USED FOR FLIGHT PLANNING PURPOSES.